sensor_id;sensor_type;location;lat;lon;timestamp;P1;durP1;ratioP1;P2;durP2;ratioP2
9773;SDS011;4926;42.670;23.316;2022-07-01T00:01:31;5.72;;;3.92;;
9773;SDS011;4926;42.670;23.316;2022-07-01T00:03:58;7.72;;;4.00;;
9773;SDS011;4926;42.670;23.316;2022-07-01T00:06:27;4.43;;;3.60;;
9773;SDS011;4926;42.670;23.316;2022-07-01T00:08:54;6.18;;;3.75;;
9773;SDS011;4926;42.670;23.316;2022-07-01T00:11:22;7.63;;;3.78;;
9773;SDS011;4926;42.670;23.316;2022-07-01T00:13:50;6.30;;;4.07;;
9773;SDS011;4926;42.670;23.316;2022-07-01T00:16:17;5.43;;;3.40;;
9773;SDS011;4926;42.670;23.316;2022-07-01T00:18:46;5.25;;;3.92;;
9773;SDS011;4926;42.670;23.316;2022-07-01T00:21:13;8.05;;;3.72;;
9773;SDS011;4926;42.670;23.316;2022-07-01T00:23:40;4.68;;;3.60;;
9773;SDS011;4926;42.670;23.316;2022-07-01T00:26:07;5.95;;;3.80;;
9773;SDS011;4926;42.670;23.316;2022-07-01T00:28:36;4.85;;;3.63;;
9773;SDS011;4926;42.670;23.316;2022-07-01T00:31:02;5.70;;;4.13;;
9773;SDS011;4926;42.670;23.316;2022-07-01T00:33:29;6.20;;;3.97;;
9773;SDS011;4926;42.670;23.316;2022-07-01T00:35:56;4.60;;;3.67;;
9773;SDS011;4926;42.670;23.316;2022-07-01T00:38:24;5.82;;;3.63;;
9773;SDS011;4926;42.670;23.316;2022-07-01T00:40:51;4.78;;;3.78;;
9773;SDS011;4926;42.670;23.316;2022-07-01T00:43:19;5.40;;;3.88;;
9773;SDS011;4926;42.670;23.316;2022-07-01T00:45:50;5.20;;;4.07;;
9773;SDS011;4926;42.670;23.316;2022-07-01T00:48:18;8.85;;;3.70;;
9773;SDS011;4926;42.670;23.316;2022-07-01T00:50:46;5.38;;;3.95;;
9773;SDS011;4926;42.670;23.316;2022-07-01T00:53:13;5.93;;;3.60;;
9773;SDS011;4926;42.670;23.316;2022-07-01T00:55:41;6.82;;;3.63;;
9773;SDS011;4926;42.670;23.316;2022-07-01T00:58:08;5.80;;;4.05;;
9773;SDS011;4926;42.670;23.316;2022-07-01T01:00:35;7.47;;;3.70;;
9773;SDS011;4926;42.670;23.316;2022-07-01T01:03:06;7.30;;;3.75;;
9773;SDS011;4926;42.670;23.316;2022-07-01T01:05:35;5.93;;;4.20;;
9773;SDS011;4926;42.670;23.316;2022-07-01T01:08:03;4.65;;;3.63;;
9773;SDS011;4926;42.670;23.316;2022-07-01T01:10:30;8.07;;;4.13;;
9773;SDS011;4926;42.670;23.316;2022-07-01T01:12:57;5.00;;;3.58;;
9773;SDS011;4926;42.670;23.316;2022-07-01T01:15:24;5.63;;;4.07;;
9773;SDS011;4926;42.670;23.316;2022-07-01T01:17:52;5.00;;;3.70;;
9773;SDS011;4926;42.670;23.316;2022-07-01T01:20:20;6.90;;;3.78;;
9773;SDS011;4926;42.670;23.316;2022-07-01T01:22:51;6.22;;;3.90;;
9773;SDS011;4926;42.670;23.316;2022-07-01T01:25:18;6.50;;;4.15;;
9773;SDS011;4926;42.670;23.316;2022-07-01T01:27:45;7.10;;;4.15;;
9773;SDS011;4926;42.670;23.316;2022-07-01T01:30:14;5.32;;;3.83;;
9773;SDS011;4926;42.670;23.316;2022-07-01T01:32:40;6.45;;;5.07;;
9773;SDS011;4926;42.670;23.316;2022-07-01T01:35:08;4.60;;;4.13;;
9773;SDS011;4926;42.670;23.316;2022-07-01T01:37:36;6.03;;;4.10;;
9773;SDS011;4926;42.670;23.316;2022-07-01T01:40:05;9.10;;;4.18;;
9773;SDS011;4926;42.670;23.316;2022-07-01T01:42:32;5.95;;;4.47;;
9773;SDS011;4926;42.670;23.316;2022-07-01T01:44:59;6.32;;;4.72;;
9773;SDS011;4926;42.670;23.316;2022-07-01T01:47:26;6.60;;;4.70;;
9773;SDS011;4926;42.670;23.316;2022-07-01T01:49:52;6.32;;;5.05;;
9773;SDS011;4926;42.670;23.316;2022-07-01T01:52:19;6.45;;;5.20;;
9773;SDS011;4926;42.670;23.316;2022-07-01T01:54:46;8.10;;;6.28;;
9773;SDS011;4926;42.670;23.316;2022-07-01T01:57:14;8.57;;;5.38;;
9773;SDS011;4926;42.670;23.316;2022-07-01T01:59:41;9.27;;;5.93;;
9773;SDS011;4926;42.670;23.316;2022-07-01T02:02:08;11.02;;;6.70;;
9773;SDS011;4926;42.670;23.316;2022-07-01T02:04:34;9.38;;;5.78;;
9773;SDS011;4926;42.670;23.316;2022-07-01T02:07:01;10.82;;;5.78;;
9773;SDS011;4926;42.670;23.316;2022-07-01T02:09:31;6.25;;;5.65;;
9773;SDS011;4926;42.670;23.316;2022-07-01T02:11:58;10.02;;;5.80;;
9773;SDS011;4926;42.670;23.316;2022-07-01T02:14:26;7.35;;;5.65;;
9773;SDS011;4926;42.670;23.316;2022-07-01T02:16:53;7.25;;;5.60;;
9773;SDS011;4926;42.670;23.316;2022-07-01T02:19:20;8.98;;;5.40;;
9773;SDS011;4926;42.670;23.316;2022-07-01T02:21:47;8.23;;;5.30;;
9773;SDS011;4926;42.670;23.316;2022-07-01T02:24:16;8.65;;;5.88;;
9773;SDS011;4926;42.670;23.316;2022-07-01T02:26:46;9.35;;;5.70;;
9773;SDS011;4926;42.670;23.316;2022-07-01T02:29:13;12.10;;;5.50;;
9773;SDS011;4926;42.670;23.316;2022-07-01T02:31:44;6.60;;;5.90;;
9773;SDS011;4926;42.670;23.316;2022-07-01T02:34:11;7.32;;;6.07;;
9773;SDS011;4926;42.670;23.316;2022-07-01T02:36:41;11.45;;;6.47;;
9773;SDS011;4926;42.670;23.316;2022-07-01T02:39:08;11.52;;;6.68;;
9773;SDS011;4926;42.670;23.316;2022-07-01T02:41:37;7.47;;;6.53;;
9773;SDS011;4926;42.670;23.316;2022-07-01T02:44:17;10.45;;;7.30;;
9773;SDS011;4926;42.670;23.316;2022-07-01T02:46:45;12.68;;;8.02;;
9773;SDS011;4926;42.670;23.316;2022-07-01T02:49:12;12.70;;;7.88;;
9773;SDS011;4926;42.670;23.316;2022-07-01T02:51:40;9.32;;;7.18;;
9773;SDS011;4926;42.670;23.316;2022-07-01T02:54:08;7.20;;;6.38;;
9773;SDS011;4926;42.670;23.316;2022-07-01T02:56:36;12.30;;;6.95;;
9773;SDS011;4926;42.670;23.316;2022-07-01T02:59:03;9.13;;;6.82;;
9773;SDS011;4926;42.670;23.316;2022-07-01T03:01:32;8.80;;;6.30;;
9773;SDS011;4926;42.670;23.316;2022-07-01T03:04:03;9.23;;;6.00;;
9773;SDS011;4926;42.670;23.316;2022-07-01T03:06:29;8.18;;;6.63;;
9773;SDS011;4926;42.670;23.316;2022-07-01T03:08:56;8.77;;;6.00;;
9773;SDS011;4926;42.670;23.316;2022-07-01T03:11:23;9.15;;;6.40;;
9773;SDS011;4926;42.670;23.316;2022-07-01T03:13:50;9.25;;;6.13;;
9773;SDS011;4926;42.670;23.316;2022-07-01T03:16:21;6.65;;;5.95;;
9773;SDS011;4926;42.670;23.316;2022-07-01T03:18:56;6.47;;;5.50;;
9773;SDS011;4926;42.670;23.316;2022-07-01T03:21:25;8.07;;;6.30;;
9773;SDS011;4926;42.670;23.316;2022-07-01T03:23:53;9.73;;;5.85;;
9773;SDS011;4926;42.670;23.316;2022-07-01T03:26:20;10.45;;;6.00;;
9773;SDS011;4926;42.670;23.316;2022-07-01T03:28:47;9.32;;;6.25;;
9773;SDS011;4926;42.670;23.316;2022-07-01T03:31:14;8.00;;;5.57;;
9773;SDS011;4926;42.670;23.316;2022-07-01T03:33:42;8.77;;;5.85;;
9773;SDS011;4926;42.670;23.316;2022-07-01T03:36:09;8.48;;;6.00;;
9773;SDS011;4926;42.670;23.316;2022-07-01T03:38:37;7.70;;;5.70;;
9773;SDS011;4926;42.670;23.316;2022-07-01T03:41:04;7.43;;;5.85;;
9773;SDS011;4926;42.670;23.316;2022-07-01T03:43:30;8.15;;;6.03;;
9773;SDS011;4926;42.670;23.316;2022-07-01T03:46:01;6.50;;;5.90;;
9773;SDS011;4926;42.670;23.316;2022-07-01T03:48:28;9.50;;;5.95;;
9773;SDS011;4926;42.670;23.316;2022-07-01T03:50:54;8.70;;;6.55;;
9773;SDS011;4926;42.670;23.316;2022-07-01T03:53:21;8.40;;;6.18;;
9773;SDS011;4926;42.670;23.316;2022-07-01T03:56:07;7.45;;;5.72;;
9773;SDS011;4926;42.670;23.316;2022-07-01T03:58:34;6.97;;;6.05;;
9773;SDS011;4926;42.670;23.316;2022-07-01T04:01:00;13.55;;;6.20;;
9773;SDS011;4926;42.670;23.316;2022-07-01T04:03:30;8.65;;;6.32;;
9773;SDS011;4926;42.670;23.316;2022-07-01T04:05:58;14.32;;;6.55;;
9773;SDS011;4926;42.670;23.316;2022-07-01T04:08:27;10.30;;;6.43;;
9773;SDS011;4926;42.670;23.316;2022-07-01T04:10:56;11.95;;;6.13;;
9773;SDS011;4926;42.670;23.316;2022-07-01T04:13:24;7.97;;;6.03;;
9773;SDS011;4926;42.670;23.316;2022-07-01T04:15:52;9.57;;;6.40;;
9773;SDS011;4926;42.670;23.316;2022-07-01T04:18:19;7.57;;;6.82;;
9773;SDS011;4926;42.670;23.316;2022-07-01T04:20:46;9.18;;;6.97;;
9773;SDS011;4926;42.670;23.316;2022-07-01T04:23:33;7.05;;;6.32;;
9773;SDS011;4926;42.670;23.316;2022-07-01T04:26:02;9.85;;;6.63;;
9773;SDS011;4926;42.670;23.316;2022-07-01T04:28:30;8.73;;;6.53;;
9773;SDS011;4926;42.670;23.316;2022-07-01T04:30:59;12.20;;;6.93;;
9773;SDS011;4926;42.670;23.316;2022-07-01T04:33:31;13.88;;;6.28;;
9773;SDS011;4926;42.670;23.316;2022-07-01T04:36:00;8.13;;;6.95;;
9773;SDS011;4926;42.670;23.316;2022-07-01T04:38:27;7.57;;;6.70;;
9773;SDS011;4926;42.670;23.316;2022-07-01T04:40:54;12.00;;;6.72;;
9773;SDS011;4926;42.670;23.316;2022-07-01T04:43:40;7.88;;;6.15;;
9773;SDS011;4926;42.670;23.316;2022-07-01T04:46:06;8.85;;;6.85;;
9773;SDS011;4926;42.670;23.316;2022-07-01T04:48:33;7.55;;;6.10;;
9773;SDS011;4926;42.670;23.316;2022-07-01T04:51:00;10.45;;;6.57;;
9773;SDS011;4926;42.670;23.316;2022-07-01T04:53:27;10.52;;;6.50;;
9773;SDS011;4926;42.670;23.316;2022-07-01T04:55:56;9.18;;;5.97;;
9773;SDS011;4926;42.670;23.316;2022-07-01T04:58:22;11.00;;;6.88;;
9773;SDS011;4926;42.670;23.316;2022-07-01T05:00:51;9.15;;;7.10;;
9773;SDS011;4926;42.670;23.316;2022-07-01T05:03:17;10.70;;;7.45;;
9773;SDS011;4926;42.670;23.316;2022-07-01T05:05:55;10.73;;;7.15;;
9773;SDS011;4926;42.670;23.316;2022-07-01T05:08:22;10.57;;;7.57;;
9773;SDS011;4926;42.670;23.316;2022-07-01T05:10:48;11.90;;;6.45;;
9773;SDS011;4926;42.670;23.316;2022-07-01T05:13:18;9.13;;;6.88;;
9773;SDS011;4926;42.670;23.316;2022-07-01T05:15:45;11.93;;;7.35;;
9773;SDS011;4926;42.670;23.316;2022-07-01T05:18:13;10.32;;;7.07;;
9773;SDS011;4926;42.670;23.316;2022-07-01T05:20:57;16.67;;;7.60;;
9773;SDS011;4926;42.670;23.316;2022-07-01T05:23:41;12.32;;;7.28;;
9773;SDS011;4926;42.670;23.316;2022-07-01T05:26:11;10.15;;;7.43;;
9773;SDS011;4926;42.670;23.316;2022-07-01T05:28:41;12.68;;;7.55;;
9773;SDS011;4926;42.670;23.316;2022-07-01T05:31:08;15.25;;;9.13;;
9773;SDS011;4926;42.670;23.316;2022-07-01T05:33:36;24.42;;;11.82;;
9773;SDS011;4926;42.670;23.316;2022-07-01T05:36:03;16.90;;;9.80;;
9773;SDS011;4926;42.670;23.316;2022-07-01T05:38:31;19.80;;;9.40;;
9773;SDS011;4926;42.670;23.316;2022-07-01T05:40:58;11.63;;;8.80;;
9773;SDS011;4926;42.670;23.316;2022-07-01T05:43:24;16.23;;;9.00;;
9773;SDS011;4926;42.670;23.316;2022-07-01T05:45:54;11.77;;;8.88;;
9773;SDS011;4926;42.670;23.316;2022-07-01T05:48:22;10.15;;;8.27;;
9773;SDS011;4926;42.670;23.316;2022-07-01T05:50:51;16.27;;;8.50;;
9773;SDS011;4926;42.670;23.316;2022-07-01T05:53:20;11.80;;;8.52;;
9773;SDS011;4926;42.670;23.316;2022-07-01T05:55:47;12.10;;;8.18;;
9773;SDS011;4926;42.670;23.316;2022-07-01T05:58:17;10.13;;;8.48;;
9773;SDS011;4926;42.670;23.316;2022-07-01T06:00:44;11.85;;;8.82;;
9773;SDS011;4926;42.670;23.316;2022-07-01T06:03:10;17.80;;;9.18;;
9773;SDS011;4926;42.670;23.316;2022-07-01T06:05:38;17.27;;;8.60;;
9773;SDS011;4926;42.670;23.316;2022-07-01T06:08:07;12.20;;;7.93;;
9773;SDS011;4926;42.670;23.316;2022-07-01T06:10:34;13.38;;;8.95;;
9773;SDS011;4926;42.670;23.316;2022-07-01T06:13:01;9.68;;;8.20;;
9773;SDS011;4926;42.670;23.316;2022-07-01T06:15:29;11.77;;;9.45;;
9773;SDS011;4926;42.670;23.316;2022-07-01T06:17:56;14.40;;;9.68;;
9773;SDS011;4926;42.670;23.316;2022-07-01T06:20:23;16.25;;;9.65;;
9773;SDS011;4926;42.670;23.316;2022-07-01T06:22:50;12.93;;;8.52;;
9773;SDS011;4926;42.670;23.316;2022-07-01T06:25:25;10.82;;;8.32;;
9773;SDS011;4926;42.670;23.316;2022-07-01T06:27:52;14.80;;;9.27;;
9773;SDS011;4926;42.670;23.316;2022-07-01T06:30:18;12.95;;;9.20;;
9773;SDS011;4926;42.670;23.316;2022-07-01T06:32:51;16.83;;;10.27;;
9773;SDS011;4926;42.670;23.316;2022-07-01T06:35:18;15.18;;;9.23;;
9773;SDS011;4926;42.670;23.316;2022-07-01T06:37:44;14.82;;;9.20;;
9773;SDS011;4926;42.670;23.316;2022-07-01T06:40:11;11.93;;;9.02;;
9773;SDS011;4926;42.670;23.316;2022-07-01T06:42:40;15.18;;;8.63;;
9773;SDS011;4926;42.670;23.316;2022-07-01T06:45:10;15.25;;;8.93;;
9773;SDS011;4926;42.670;23.316;2022-07-01T06:47:37;12.45;;;9.07;;
9773;SDS011;4926;42.670;23.316;2022-07-01T06:50:04;14.98;;;9.00;;
9773;SDS011;4926;42.670;23.316;2022-07-01T06:52:32;14.57;;;8.98;;
9773;SDS011;4926;42.670;23.316;2022-07-01T06:54:59;13.85;;;8.50;;
9773;SDS011;4926;42.670;23.316;2022-07-01T06:57:27;19.02;;;8.93;;
9773;SDS011;4926;42.670;23.316;2022-07-01T06:59:57;14.40;;;8.45;;
9773;SDS011;4926;42.670;23.316;2022-07-01T07:02:24;12.32;;;8.55;;
9773;SDS011;4926;42.670;23.316;2022-07-01T07:04:51;14.73;;;8.20;;
9773;SDS011;4926;42.670;23.316;2022-07-01T07:07:23;17.05;;;8.68;;
9773;SDS011;4926;42.670;23.316;2022-07-01T07:09:50;19.35;;;8.57;;
9773;SDS011;4926;42.670;23.316;2022-07-01T07:12:16;16.13;;;8.38;;
9773;SDS011;4926;42.670;23.316;2022-07-01T07:14:43;14.55;;;7.90;;
9773;SDS011;4926;42.670;23.316;2022-07-01T07:17:14;13.60;;;8.13;;
9773;SDS011;4926;42.670;23.316;2022-07-01T07:19:41;14.02;;;8.95;;
9773;SDS011;4926;42.670;23.316;2022-07-01T07:22:08;9.90;;;7.22;;
9773;SDS011;4926;42.670;23.316;2022-07-01T07:24:35;14.70;;;7.55;;
9773;SDS011;4926;42.670;23.316;2022-07-01T07:27:02;11.15;;;7.30;;
9773;SDS011;4926;42.670;23.316;2022-07-01T07:29:31;18.75;;;7.85;;
9773;SDS011;4926;42.670;23.316;2022-07-01T07:31:58;11.15;;;8.00;;
9773;SDS011;4926;42.670;23.316;2022-07-01T07:34:30;9.98;;;7.40;;
9773;SDS011;4926;42.670;23.316;2022-07-01T07:37:00;11.20;;;7.63;;
9773;SDS011;4926;42.670;23.316;2022-07-01T07:39:27;12.15;;;6.80;;
9773;SDS011;4926;42.670;23.316;2022-07-01T07:41:54;15.73;;;7.95;;
9773;SDS011;4926;42.670;23.316;2022-07-01T07:44:24;10.18;;;7.38;;
9773;SDS011;4926;42.670;23.316;2022-07-01T07:46:53;14.73;;;8.10;;
9773;SDS011;4926;42.670;23.316;2022-07-01T07:49:21;13.43;;;8.07;;
9773;SDS011;4926;42.670;23.316;2022-07-01T07:51:52;11.18;;;7.65;;
9773;SDS011;4926;42.670;23.316;2022-07-01T07:54:19;11.13;;;6.97;;
9773;SDS011;4926;42.670;23.316;2022-07-01T07:56:46;13.35;;;7.75;;
9773;SDS011;4926;42.670;23.316;2022-07-01T07:59:13;10.00;;;6.75;;
9773;SDS011;4926;42.670;23.316;2022-07-01T08:01:40;13.65;;;7.00;;
9773;SDS011;4926;42.670;23.316;2022-07-01T08:04:06;16.30;;;7.70;;
9773;SDS011;4926;42.670;23.316;2022-07-01T08:06:33;13.73;;;9.98;;
9773;SDS011;4926;42.670;23.316;2022-07-01T08:09:02;12.82;;;7.35;;
9773;SDS011;4926;42.670;23.316;2022-07-01T08:11:29;15.30;;;8.07;;
9773;SDS011;4926;42.670;23.316;2022-07-01T08:13:56;13.27;;;7.20;;
9773;SDS011;4926;42.670;23.316;2022-07-01T08:16:24;9.25;;;6.45;;
9773;SDS011;4926;42.670;23.316;2022-07-01T08:18:51;12.32;;;7.05;;
9773;SDS011;4926;42.670;23.316;2022-07-01T08:21:21;14.05;;;7.40;;
9773;SDS011;4926;42.670;23.316;2022-07-01T08:23:47;11.90;;;6.57;;
9773;SDS011;4926;42.670;23.316;2022-07-01T08:26:18;12.45;;;7.10;;
9773;SDS011;4926;42.670;23.316;2022-07-01T08:28:47;12.40;;;7.50;;
9773;SDS011;4926;42.670;23.316;2022-07-01T08:31:14;11.57;;;7.40;;
9773;SDS011;4926;42.670;23.316;2022-07-01T08:33:42;14.63;;;7.13;;
9773;SDS011;4926;42.670;23.316;2022-07-01T08:36:11;14.68;;;7.65;;
9773;SDS011;4926;42.670;23.316;2022-07-01T08:38:39;10.90;;;7.10;;
9773;SDS011;4926;42.670;23.316;2022-07-01T08:41:06;14.30;;;8.27;;
9773;SDS011;4926;42.670;23.316;2022-07-01T08:43:35;14.80;;;7.05;;
9773;SDS011;4926;42.670;23.316;2022-07-01T08:46:03;10.63;;;6.93;;
9773;SDS011;4926;42.670;23.316;2022-07-01T08:48:35;15.55;;;6.68;;
9773;SDS011;4926;42.670;23.316;2022-07-01T08:51:05;10.55;;;6.22;;
9773;SDS011;4926;42.670;23.316;2022-07-01T08:53:32;9.02;;;6.32;;
9773;SDS011;4926;42.670;23.316;2022-07-01T08:55:59;8.73;;;6.20;;
9773;SDS011;4926;42.670;23.316;2022-07-01T08:58:44;8.27;;;6.03;;
9773;SDS011;4926;42.670;23.316;2022-07-01T09:01:14;10.70;;;6.18;;
9773;SDS011;4926;42.670;23.316;2022-07-01T09:03:46;8.85;;;6.10;;
9773;SDS011;4926;42.670;23.316;2022-07-01T09:06:14;9.45;;;6.75;;
9773;SDS011;4926;42.670;23.316;2022-07-01T09:08:42;9.18;;;6.38;;
9773;SDS011;4926;42.670;23.316;2022-07-01T09:11:11;11.32;;;6.15;;
9773;SDS011;4926;42.670;23.316;2022-07-01T09:13:42;13.27;;;5.72;;
9773;SDS011;4926;42.670;23.316;2022-07-01T09:16:12;8.52;;;5.00;;
9773;SDS011;4926;42.670;23.316;2022-07-01T09:18:58;6.57;;;5.60;;
9773;SDS011;4926;42.670;23.316;2022-07-01T09:21:27;9.70;;;4.78;;
9773;SDS011;4926;42.670;23.316;2022-07-01T09:23:54;8.15;;;5.05;;
9773;SDS011;4926;42.670;23.316;2022-07-01T09:26:21;10.80;;;4.90;;
9773;SDS011;4926;42.670;23.316;2022-07-01T09:28:53;8.63;;;5.00;;
9773;SDS011;4926;42.670;23.316;2022-07-01T09:31:21;6.57;;;5.43;;
9773;SDS011;4926;42.670;23.316;2022-07-01T09:34:02;7.82;;;5.40;;
9773;SDS011;4926;42.670;23.316;2022-07-01T09:36:30;9.63;;;5.32;;
9773;SDS011;4926;42.670;23.316;2022-07-01T09:39:02;7.78;;;5.50;;
9773;SDS011;4926;42.670;23.316;2022-07-01T09:41:34;12.68;;;5.90;;
9773;SDS011;4926;42.670;23.316;2022-07-01T09:44:05;7.43;;;5.20;;
9773;SDS011;4926;42.670;23.316;2022-07-01T09:46:32;9.45;;;5.25;;
9773;SDS011;4926;42.670;23.316;2022-07-01T09:49:02;9.77;;;5.40;;
9773;SDS011;4926;42.670;23.316;2022-07-01T09:51:29;9.73;;;5.10;;
9773;SDS011;4926;42.670;23.316;2022-07-01T09:53:58;8.38;;;4.70;;
9773;SDS011;4926;42.670;23.316;2022-07-01T09:56:25;7.35;;;5.32;;
9773;SDS011;4926;42.670;23.316;2022-07-01T09:58:52;10.95;;;5.45;;
9773;SDS011;4926;42.670;23.316;2022-07-01T10:01:22;7.88;;;4.47;;
9773;SDS011;4926;42.670;23.316;2022-07-01T10:03:50;6.57;;;5.05;;
9773;SDS011;4926;42.670;23.316;2022-07-01T10:06:29;5.28;;;4.07;;
9773;SDS011;4926;42.670;23.316;2022-07-01T10:09:08;7.15;;;4.63;;
9773;SDS011;4926;42.670;23.316;2022-07-01T10:12:00;6.47;;;4.90;;
9773;SDS011;4926;42.670;23.316;2022-07-01T10:15:05;7.63;;;4.70;;
9773;SDS011;4926;42.670;23.316;2022-07-01T10:17:40;6.90;;;4.43;;
9773;SDS011;4926;42.670;23.316;2022-07-01T10:20:11;8.35;;;4.53;;
9773;SDS011;4926;42.670;23.316;2022-07-01T10:22:40;5.05;;;4.55;;
9773;SDS011;4926;42.670;23.316;2022-07-01T10:28:14;6.22;;;4.63;;
9773;SDS011;4926;42.670;23.316;2022-07-01T10:30:53;6.35;;;4.68;;
9773;SDS011;4926;42.670;23.316;2022-07-01T10:33:29;5.75;;;4.88;;
9773;SDS011;4926;42.670;23.316;2022-07-01T10:39:12;8.55;;;4.90;;
9773;SDS011;4926;42.670;23.316;2022-07-01T10:41:54;6.43;;;4.45;;
9773;SDS011;4926;42.670;23.316;2022-07-01T10:44:23;6.40;;;4.93;;
9773;SDS011;4926;42.670;23.316;2022-07-01T10:46:51;12.90;;;6.25;;
9773;SDS011;4926;42.670;23.316;2022-07-01T10:52:26;6.75;;;5.22;;
9773;SDS011;4926;42.670;23.316;2022-07-01T10:54:56;5.85;;;5.00;;
9773;SDS011;4926;42.670;23.316;2022-07-01T10:57:32;5.70;;;4.63;;
9773;SDS011;4926;42.670;23.316;2022-07-01T11:05:50;7.13;;;4.03;;
9773;SDS011;4926;42.670;23.316;2022-07-01T11:08:22;8.40;;;4.38;;
9773;SDS011;4926;42.670;23.316;2022-07-01T11:10:51;5.70;;;4.70;;
9773;SDS011;4926;42.670;23.316;2022-07-01T11:13:21;5.05;;;4.65;;
9773;SDS011;4926;42.670;23.316;2022-07-01T11:15:47;10.90;;;4.50;;
9773;SDS011;4926;42.670;23.316;2022-07-01T11:18:17;4.68;;;4.05;;
9773;SDS011;4926;42.670;23.316;2022-07-01T11:20:45;7.80;;;3.97;;
9773;SDS011;4926;42.670;23.316;2022-07-01T11:23:13;5.10;;;4.15;;
9773;SDS011;4926;42.670;23.316;2022-07-01T11:25:43;5.35;;;4.50;;
9773;SDS011;4926;42.670;23.316;2022-07-01T11:28:10;7.97;;;4.97;;
9773;SDS011;4926;42.670;23.316;2022-07-01T11:30:38;6.07;;;4.82;;
9773;SDS011;4926;42.670;23.316;2022-07-01T11:33:04;6.05;;;4.38;;
9773;SDS011;4926;42.670;23.316;2022-07-01T11:35:31;5.78;;;4.30;;
9773;SDS011;4926;42.670;23.316;2022-07-01T11:38:16;8.23;;;4.53;;
9773;SDS011;4926;42.670;23.316;2022-07-01T11:41:03;4.93;;;4.50;;
9773;SDS011;4926;42.670;23.316;2022-07-01T11:43:37;4.45;;;4.05;;
9773;SDS011;4926;42.670;23.316;2022-07-01T11:46:06;6.13;;;4.13;;
9773;SDS011;4926;42.670;23.316;2022-07-01T11:48:35;7.10;;;4.15;;
9773;SDS011;4926;42.670;23.316;2022-07-01T11:51:06;9.43;;;4.90;;
9773;SDS011;4926;42.670;23.316;2022-07-01T11:53:37;7.55;;;4.13;;
9773;SDS011;4926;42.670;23.316;2022-07-01T11:56:05;4.85;;;3.88;;
9773;SDS011;4926;42.670;23.316;2022-07-01T11:58:42;10.48;;;3.67;;
9773;SDS011;4926;42.670;23.316;2022-07-01T12:01:10;9.30;;;4.55;;
9773;SDS011;4926;42.670;23.316;2022-07-01T12:03:37;4.60;;;4.13;;
9773;SDS011;4926;42.670;23.316;2022-07-01T12:06:05;7.55;;;4.07;;
9773;SDS011;4926;42.670;23.316;2022-07-01T12:08:33;5.80;;;4.25;;
9773;SDS011;4926;42.670;23.316;2022-07-01T12:11:00;6.45;;;4.57;;
9773;SDS011;4926;42.670;23.316;2022-07-01T12:13:28;6.60;;;4.10;;
9773;SDS011;4926;42.670;23.316;2022-07-01T12:16:04;4.10;;;3.80;;
9773;SDS011;4926;42.670;23.316;2022-07-01T12:18:33;4.85;;;4.38;;
9773;SDS011;4926;42.670;23.316;2022-07-01T12:21:00;4.82;;;4.03;;
9773;SDS011;4926;42.670;23.316;2022-07-01T12:23:27;5.65;;;4.07;;
9773;SDS011;4926;42.670;23.316;2022-07-01T12:25:55;8.10;;;4.10;;
9773;SDS011;4926;42.670;23.316;2022-07-01T12:28:30;3.80;;;3.35;;
9773;SDS011;4926;42.670;23.316;2022-07-01T12:31:02;3.97;;;3.47;;
9773;SDS011;4926;42.670;23.316;2022-07-01T12:33:32;5.30;;;3.95;;
9773;SDS011;4926;42.670;23.316;2022-07-01T12:36:00;4.20;;;3.72;;
9773;SDS011;4926;42.670;23.316;2022-07-01T12:38:28;4.05;;;3.45;;
9773;SDS011;4926;42.670;23.316;2022-07-01T12:40:58;3.95;;;3.65;;
9773;SDS011;4926;42.670;23.316;2022-07-01T12:43:25;5.20;;;4.60;;
9773;SDS011;4926;42.670;23.316;2022-07-01T12:45:57;7.55;;;6.60;;
9773;SDS011;4926;42.670;23.316;2022-07-01T12:48:24;5.90;;;4.43;;
9773;SDS011;4926;42.670;23.316;2022-07-01T12:50:54;6.00;;;4.25;;
9773;SDS011;4926;42.670;23.316;2022-07-01T12:53:23;8.35;;;3.90;;
9773;SDS011;4926;42.670;23.316;2022-07-01T12:55:52;5.10;;;4.00;;
9773;SDS011;4926;42.670;23.316;2022-07-01T12:58:20;4.57;;;3.85;;
9773;SDS011;4926;42.670;23.316;2022-07-01T13:00:49;5.38;;;4.57;;
9773;SDS011;4926;42.670;23.316;2022-07-01T13:03:20;5.10;;;3.63;;
9773;SDS011;4926;42.670;23.316;2022-07-01T13:05:48;4.38;;;3.97;;
9773;SDS011;4926;42.670;23.316;2022-07-01T13:08:16;5.53;;;4.80;;
9773;SDS011;4926;42.670;23.316;2022-07-01T13:10:44;8.63;;;4.60;;
9773;SDS011;4926;42.670;23.316;2022-07-01T13:13:21;7.80;;;4.70;;
9773;SDS011;4926;42.670;23.316;2022-07-01T13:15:48;12.20;;;5.20;;
9773;SDS011;4926;42.670;23.316;2022-07-01T13:18:15;7.47;;;4.43;;
9773;SDS011;4926;42.670;23.316;2022-07-01T13:20:42;6.63;;;5.00;;
9773;SDS011;4926;42.670;23.316;2022-07-01T13:23:11;6.70;;;5.15;;
9773;SDS011;4926;42.670;23.316;2022-07-01T13:25:38;8.38;;;4.80;;
9773;SDS011;4926;42.670;23.316;2022-07-01T13:28:05;5.93;;;4.35;;
9773;SDS011;4926;42.670;23.316;2022-07-01T13:30:36;7.63;;;4.60;;
9773;SDS011;4926;42.670;23.316;2022-07-01T13:33:06;6.45;;;4.40;;
9773;SDS011;4926;42.670;23.316;2022-07-01T13:35:33;8.02;;;4.95;;
9773;SDS011;4926;42.670;23.316;2022-07-01T13:38:00;5.28;;;4.63;;
9773;SDS011;4926;42.670;23.316;2022-07-01T13:40:26;5.20;;;4.70;;
9773;SDS011;4926;42.670;23.316;2022-07-01T13:42:53;5.57;;;4.88;;
9773;SDS011;4926;42.670;23.316;2022-07-01T13:45:20;5.55;;;4.97;;
9773;SDS011;4926;42.670;23.316;2022-07-01T13:47:49;7.82;;;4.60;;
9773;SDS011;4926;42.670;23.316;2022-07-01T13:50:17;8.50;;;4.85;;
9773;SDS011;4926;42.670;23.316;2022-07-01T13:52:45;5.93;;;4.72;;
9773;SDS011;4926;42.670;23.316;2022-07-01T13:55:12;5.47;;;5.03;;
9773;SDS011;4926;42.670;23.316;2022-07-01T13:57:41;7.97;;;4.88;;
9773;SDS011;4926;42.670;23.316;2022-07-01T14:00:08;5.65;;;4.88;;
9773;SDS011;4926;42.670;23.316;2022-07-01T14:02:38;5.75;;;4.95;;
9773;SDS011;4926;42.670;23.316;2022-07-01T14:05:07;5.90;;;5.30;;
9773;SDS011;4926;42.670;23.316;2022-07-01T14:07:34;12.55;;;9.82;;
9773;SDS011;4926;42.670;23.316;2022-07-01T14:10:02;5.70;;;5.20;;
9773;SDS011;4926;42.670;23.316;2022-07-01T14:12:29;6.63;;;5.80;;
9773;SDS011;4926;42.670;23.316;2022-07-01T14:14:56;7.45;;;6.63;;
9773;SDS011;4926;42.670;23.316;2022-07-01T14:17:23;8.30;;;5.57;;
9773;SDS011;4926;42.670;23.316;2022-07-01T14:19:53;8.55;;;6.25;;
9773;SDS011;4926;42.670;23.316;2022-07-01T14:22:25;7.57;;;5.28;;
9773;SDS011;4926;42.670;23.316;2022-07-01T14:24:54;7.80;;;5.18;;
9773;SDS011;4926;42.670;23.316;2022-07-01T14:27:25;7.53;;;5.68;;
9773;SDS011;4926;42.670;23.316;2022-07-01T14:29:52;7.15;;;5.20;;
9773;SDS011;4926;42.670;23.316;2022-07-01T14:32:18;5.90;;;5.40;;
9773;SDS011;4926;42.670;23.316;2022-07-01T14:34:49;8.13;;;6.00;;
9773;SDS011;4926;42.670;23.316;2022-07-01T14:37:16;6.40;;;5.38;;
9773;SDS011;4926;42.670;23.316;2022-07-01T14:39:44;5.78;;;5.25;;
9773;SDS011;4926;42.670;23.316;2022-07-01T14:42:11;9.95;;;5.97;;
9773;SDS011;4926;42.670;23.316;2022-07-01T14:44:38;7.35;;;5.55;;
9773;SDS011;4926;42.670;23.316;2022-07-01T14:47:09;5.93;;;5.30;;
9773;SDS011;4926;42.670;23.316;2022-07-01T14:49:38;5.15;;;4.75;;
9773;SDS011;4926;42.670;23.316;2022-07-01T14:52:05;5.28;;;4.55;;
9773;SDS011;4926;42.670;23.316;2022-07-01T14:54:33;5.30;;;4.90;;
9773;SDS011;4926;42.670;23.316;2022-07-01T14:57:01;6.90;;;4.70;;
9773;SDS011;4926;42.670;23.316;2022-07-01T14:59:29;9.15;;;5.00;;
9773;SDS011;4926;42.670;23.316;2022-07-01T15:01:58;6.57;;;5.00;;
9773;SDS011;4926;42.670;23.316;2022-07-01T15:04:28;4.90;;;4.50;;
9773;SDS011;4926;42.670;23.316;2022-07-01T15:07:08;5.00;;;4.60;;
9773;SDS011;4926;42.670;23.316;2022-07-01T15:09:35;6.82;;;5.38;;
9773;SDS011;4926;42.670;23.316;2022-07-01T15:12:06;5.25;;;4.30;;
9773;SDS011;4926;42.670;23.316;2022-07-01T15:14:36;5.47;;;5.03;;
9773;SDS011;4926;42.670;23.316;2022-07-01T15:17:03;6.22;;;5.72;;
9773;SDS011;4926;42.670;23.316;2022-07-01T15:19:33;6.07;;;4.90;;
9773;SDS011;4926;42.670;23.316;2022-07-01T15:21:59;4.95;;;4.55;;
9773;SDS011;4926;42.670;23.316;2022-07-01T15:24:29;5.22;;;4.78;;